Noroton Heights, Connecticut
Current Conditions -  °F | °C
As of 9:56 PM on Tuesday 25 Nov 2014 (Local Time) from KHPN Reporting Station
Clear Clear  
Wind Chill: 45°   Ceiling: Unl
Heat Index: 45°   Visibility: 10mi
Dew Point: 29°   Wind: 3mph
Humidity: 53%   Direction: 270°W
Pressure: 30.11"   Gusts: NA
Location:  41.0804°N, 73.4823°W
Report Text: KHPN 260256Z 27003KT 10SM CLR 07/M02 A3011 RMK AO2 SLP197 T00721017 51022
Loading
Personal Weather Stations






























Interactive Weather Map New forecast layout! Learn more

10-Day Weather Forecast

Advertisements
Track Severe Weather on mobile